sensor_id;sensor_type;location;lat;lon;timestamp;temperature;humidity
67769;DHT22;54569;52.018;5.584;2023-04-26T00:01:22;5.70;66.80
67769;DHT22;54569;52.018;5.584;2023-04-26T00:03:48;5.70;66.90
67769;DHT22;54569;52.018;5.584;2023-04-26T00:06:14;5.80;67.00
67769;DHT22;54569;52.018;5.584;2023-04-26T00:08:41;5.70;66.80
67769;DHT22;54569;52.018;5.584;2023-04-26T00:11:07;5.70;66.90
67769;DHT22;54569;52.018;5.584;2023-04-26T00:13:33;5.70;67.00
67769;DHT22;54569;52.018;5.584;2023-04-26T00:15:59;5.70;67.10
67769;DHT22;54569;52.018;5.584;2023-04-26T00:18:24;5.70;67.10
67769;DHT22;54569;52.018;5.584;2023-04-26T00:20:50;5.70;67.20
67769;DHT22;54569;52.018;5.584;2023-04-26T00:23:16;5.70;67.20
67769;DHT22;54569;52.018;5.584;2023-04-26T00:25:42;5.70;67.20
67769;DHT22;54569;52.018;5.584;2023-04-26T00:28:08;5.70;67.30
67769;DHT22;54569;52.018;5.584;2023-04-26T00:30:34;5.70;67.40
67769;DHT22;54569;52.018;5.584;2023-04-26T00:33:02;5.60;67.40
67769;DHT22;54569;52.018;5.584;2023-04-26T00:35:28;5.60;67.60
67769;DHT22;54569;52.018;5.584;2023-04-26T00:37:54;5.50;67.80
67769;DHT22;54569;52.018;5.584;2023-04-26T00:40:19;5.50;67.80
67769;DHT22;54569;52.018;5.584;2023-04-26T00:42:46;5.50;67.80
67769;DHT22;54569;52.018;5.584;2023-04-26T00:45:11;5.50;67.80
67769;DHT22;54569;52.018;5.584;2023-04-26T00:47:37;5.50;68.00
67769;DHT22;54569;52.018;5.584;2023-04-26T00:50:03;5.50;68.00
67769;DHT22;54569;52.018;5.584;2023-04-26T00:52:29;5.40;68.00
67769;DHT22;54569;52.018;5.584;2023-04-26T00:54:56;5.40;68.10
67769;DHT22;54569;52.018;5.584;2023-04-26T00:57:22;5.30;68.20
67769;DHT22;54569;52.018;5.584;2023-04-26T00:59:48;5.30;68.30
67769;DHT22;54569;52.018;5.584;2023-04-26T01:02:15;5.20;68.40
67769;DHT22;54569;52.018;5.584;2023-04-26T01:04:42;5.20;68.50
67769;DHT22;54569;52.018;5.584;2023-04-26T01:07:09;5.20;68.60
67769;DHT22;54569;52.018;5.584;2023-04-26T01:09:36;5.10;68.70
67769;DHT22;54569;52.018;5.584;2023-04-26T01:12:02;5.10;68.70
67769;DHT22;54569;52.018;5.584;2023-04-26T01:14:29;5.10;68.80
67769;DHT22;54569;52.018;5.584;2023-04-26T01:16:56;5.10;68.90
67769;DHT22;54569;52.018;5.584;2023-04-26T01:19:22;5.10;69.00
67769;DHT22;54569;52.018;5.584;2023-04-26T01:21:47;5.00;69.00
67769;DHT22;54569;52.018;5.584;2023-04-26T01:24:13;5.00;69.10
67769;DHT22;54569;52.018;5.584;2023-04-26T01:26:40;5.00;69.10
67769;DHT22;54569;52.018;5.584;2023-04-26T01:29:17;5.00;69.20
67769;DHT22;54569;52.018;5.584;2023-04-26T01:31:43;5.00;69.10
67769;DHT22;54569;52.018;5.584;2023-04-26T01:34:09;5.00;69.20
67769;DHT22;54569;52.018;5.584;2023-04-26T01:36:34;5.00;69.30
67769;DHT22;54569;52.018;5.584;2023-04-26T01:39:00;5.00;69.40
67769;DHT22;54569;52.018;5.584;2023-04-26T01:41:26;5.00;69.40
67769;DHT22;54569;52.018;5.584;2023-04-26T01:43:52;4.90;69.50
67769;DHT22;54569;52.018;5.584;2023-04-26T01:46:18;4.90;69.50
67769;DHT22;54569;52.018;5.584;2023-04-26T01:48:43;4.90;69.50
67769;DHT22;54569;52.018;5.584;2023-04-26T01:51:09;4.90;69.50
67769;DHT22;54569;52.018;5.584;2023-04-26T01:53:35;4.90;69.60
67769;DHT22;54569;52.018;5.584;2023-04-26T01:56:03;4.90;69.70
67769;DHT22;54569;52.018;5.584;2023-04-26T01:58:30;4.90;69.80
67769;DHT22;54569;52.018;5.584;2023-04-26T02:01:03;4.90;69.80
67769;DHT22;54569;52.018;5.584;2023-04-26T02:03:30;4.90;69.90
67769;DHT22;54569;52.018;5.584;2023-04-26T02:05:55;4.80;70.00
67769;DHT22;54569;52.018;5.584;2023-04-26T02:08:21;4.80;70.00
67769;DHT22;54569;52.018;5.584;2023-04-26T02:10:47;4.80;70.00
67769;DHT22;54569;52.018;5.584;2023-04-26T02:13:14;4.80;70.00
67769;DHT22;54569;52.018;5.584;2023-04-26T02:15:40;4.80;70.00
67769;DHT22;54569;52.018;5.584;2023-04-26T02:18:06;4.80;70.10
67769;DHT22;54569;52.018;5.584;2023-04-26T02:20:34;4.70;70.10
67769;DHT22;54569;52.018;5.584;2023-04-26T02:23:01;4.70;70.20
67769;DHT22;54569;52.018;5.584;2023-04-26T02:25:26;4.70;70.20
67769;DHT22;54569;52.018;5.584;2023-04-26T02:27:53;4.70;70.30
67769;DHT22;54569;52.018;5.584;2023-04-26T02:30:20;4.70;70.30
67769;DHT22;54569;52.018;5.584;2023-04-26T02:32:45;4.60;70.30
67769;DHT22;54569;52.018;5.584;2023-04-26T02:35:11;4.60;70.40
67769;DHT22;54569;52.018;5.584;2023-04-26T02:37:37;4.50;70.40
67769;DHT22;54569;52.018;5.584;2023-04-26T02:40:03;4.40;70.30
67769;DHT22;54569;52.018;5.584;2023-04-26T02:42:30;4.30;70.60
67769;DHT22;54569;52.018;5.584;2023-04-26T02:44:56;4.30;70.80
67769;DHT22;54569;52.018;5.584;2023-04-26T02:47:23;4.20;70.80
67769;DHT22;54569;52.018;5.584;2023-04-26T02:49:48;4.20;71.00
67769;DHT22;54569;52.018;5.584;2023-04-26T02:52:15;4.20;71.10
67769;DHT22;54569;52.018;5.584;2023-04-26T02:54:41;4.10;71.20
67769;DHT22;54569;52.018;5.584;2023-04-26T02:57:07;4.10;71.20
67769;DHT22;54569;52.018;5.584;2023-04-26T02:59:32;4.10;71.30
67769;DHT22;54569;52.018;5.584;2023-04-26T03:01:58;4.10;71.30
67769;DHT22;54569;52.018;5.584;2023-04-26T03:04:24;4.10;71.40
67769;DHT22;54569;52.018;5.584;2023-04-26T03:06:50;4.10;71.40
67769;DHT22;54569;52.018;5.584;2023-04-26T03:09:15;4.10;71.40
67769;DHT22;54569;52.018;5.584;2023-04-26T03:11:42;4.00;71.40
67769;DHT22;54569;52.018;5.584;2023-04-26T03:14:07;4.00;71.50
67769;DHT22;54569;52.018;5.584;2023-04-26T03:16:40;4.00;71.50
67769;DHT22;54569;52.018;5.584;2023-04-26T03:19:06;4.00;71.60
67769;DHT22;54569;52.018;5.584;2023-04-26T03:21:32;4.00;71.60
67769;DHT22;54569;52.018;5.584;2023-04-26T03:23:58;3.90;71.50
67769;DHT22;54569;52.018;5.584;2023-04-26T03:26:24;3.90;71.60
67769;DHT22;54569;52.018;5.584;2023-04-26T03:28:49;3.90;71.70
67769;DHT22;54569;52.018;5.584;2023-04-26T03:31:15;3.80;71.80
67769;DHT22;54569;52.018;5.584;2023-04-26T03:33:41;3.80;71.90
67769;DHT22;54569;52.018;5.584;2023-04-26T03:36:07;3.70;71.90
67769;DHT22;54569;52.018;5.584;2023-04-26T03:38:34;3.70;72.10
67769;DHT22;54569;52.018;5.584;2023-04-26T03:41:00;3.70;72.20
67769;DHT22;54569;52.018;5.584;2023-04-26T03:43:25;3.70;72.20
67769;DHT22;54569;52.018;5.584;2023-04-26T03:45:51;3.60;72.20
67769;DHT22;54569;52.018;5.584;2023-04-26T03:48:17;3.70;72.30
67769;DHT22;54569;52.018;5.584;2023-04-26T03:50:44;3.70;72.30
67769;DHT22;54569;52.018;5.584;2023-04-26T03:53:10;3.70;72.20
67769;DHT22;54569;52.018;5.584;2023-04-26T03:55:37;3.60;72.30
67769;DHT22;54569;52.018;5.584;2023-04-26T03:58:03;3.60;72.40
67769;DHT22;54569;52.018;5.584;2023-04-26T04:00:35;3.60;72.50
67769;DHT22;54569;52.018;5.584;2023-04-26T04:03:01;3.60;72.60
67769;DHT22;54569;52.018;5.584;2023-04-26T04:05:27;3.50;72.60
67769;DHT22;54569;52.018;5.584;2023-04-26T04:07:53;3.50;72.60
67769;DHT22;54569;52.018;5.584;2023-04-26T04:10:20;3.40;72.70
67769;DHT22;54569;52.018;5.584;2023-04-26T04:12:48;3.40;72.80
67769;DHT22;54569;52.018;5.584;2023-04-26T04:15:14;3.40;72.90
67769;DHT22;54569;52.018;5.584;2023-04-26T04:17:45;3.40;73.00
67769;DHT22;54569;52.018;5.584;2023-04-26T04:20:11;3.30;72.90
67769;DHT22;54569;52.018;5.584;2023-04-26T04:22:38;3.30;72.90
67769;DHT22;54569;52.018;5.584;2023-04-26T04:25:06;3.30;72.90
67769;DHT22;54569;52.018;5.584;2023-04-26T04:27:32;3.30;73.00
67769;DHT22;54569;52.018;5.584;2023-04-26T04:29:57;3.30;73.10
67769;DHT22;54569;52.018;5.584;2023-04-26T04:32:23;3.30;73.10
67769;DHT22;54569;52.018;5.584;2023-04-26T04:34:50;3.30;73.10
67769;DHT22;54569;52.018;5.584;2023-04-26T04:37:18;3.30;73.10
67769;DHT22;54569;52.018;5.584;2023-04-26T04:39:44;3.30;73.10
67769;DHT22;54569;52.018;5.584;2023-04-26T04:42:09;3.40;73.20
67769;DHT22;54569;52.018;5.584;2023-04-26T04:44:37;3.40;73.10
67769;DHT22;54569;52.018;5.584;2023-04-26T04:47:04;3.40;73.10
67769;DHT22;54569;52.018;5.584;2023-04-26T04:49:31;3.40;73.10
67769;DHT22;54569;52.018;5.584;2023-04-26T04:51:57;3.40;73.10
67769;DHT22;54569;52.018;5.584;2023-04-26T04:54:22;3.40;73.10
67769;DHT22;54569;52.018;5.584;2023-04-26T04:56:49;3.50;73.10
67769;DHT22;54569;52.018;5.584;2023-04-26T04:59:16;3.50;73.00
67769;DHT22;54569;52.018;5.584;2023-04-26T05:01:42;3.50;73.00
67769;DHT22;54569;52.018;5.584;2023-04-26T05:04:12;3.50;73.00
67769;DHT22;54569;52.018;5.584;2023-04-26T05:06:37;3.50;73.00
67769;DHT22;54569;52.018;5.584;2023-04-26T05:09:03;3.60;73.00
67769;DHT22;54569;52.018;5.584;2023-04-26T05:11:31;3.60;73.00
67769;DHT22;54569;52.018;5.584;2023-04-26T05:13:58;3.60;72.90
67769;DHT22;54569;52.018;5.584;2023-04-26T05:16:24;3.70;73.00
67769;DHT22;54569;52.018;5.584;2023-04-26T05:18:50;3.70;72.90
67769;DHT22;54569;52.018;5.584;2023-04-26T05:21:16;3.80;73.00
67769;DHT22;54569;52.018;5.584;2023-04-26T05:23:42;3.80;72.90
67769;DHT22;54569;52.018;5.584;2023-04-26T05:26:13;3.90;72.90
67769;DHT22;54569;52.018;5.584;2023-04-26T05:28:55;4.00;72.70
67769;DHT22;54569;52.018;5.584;2023-04-26T05:31:39;4.10;72.70
67769;DHT22;54569;52.018;5.584;2023-04-26T05:34:23;4.20;72.60
67769;DHT22;54569;52.018;5.584;2023-04-26T05:36:54;4.30;72.40
67769;DHT22;54569;52.018;5.584;2023-04-26T05:39:20;4.30;72.10
67769;DHT22;54569;52.018;5.584;2023-04-26T05:41:46;4.40;72.20
67769;DHT22;54569;52.018;5.584;2023-04-26T05:44:12;4.40;72.00
67769;DHT22;54569;52.018;5.584;2023-04-26T05:46:40;4.50;71.90
67769;DHT22;54569;52.018;5.584;2023-04-26T05:49:10;4.50;71.80
67769;DHT22;54569;52.018;5.584;2023-04-26T05:51:35;4.50;71.90
67769;DHT22;54569;52.018;5.584;2023-04-26T05:54:01;4.60;72.10
67769;DHT22;54569;52.018;5.584;2023-04-26T05:56:27;4.60;72.10
67769;DHT22;54569;52.018;5.584;2023-04-26T05:58:54;4.70;71.90
67769;DHT22;54569;52.018;5.584;2023-04-26T06:01:20;4.70;72.00
67769;DHT22;54569;52.018;5.584;2023-04-26T06:03:46;4.80;71.90
67769;DHT22;54569;52.018;5.584;2023-04-26T06:06:13;5.00;71.80
67769;DHT22;54569;52.018;5.584;2023-04-26T06:08:41;5.10;71.60
67769;DHT22;54569;52.018;5.584;2023-04-26T06:11:09;5.20;71.60
67769;DHT22;54569;52.018;5.584;2023-04-26T06:13:34;5.50;71.40
67769;DHT22;54569;52.018;5.584;2023-04-26T06:16:00;5.70;71.10
67769;DHT22;54569;52.018;5.584;2023-04-26T06:18:26;5.90;70.60
67769;DHT22;54569;52.018;5.584;2023-04-26T06:20:52;6.20;70.10
67769;DHT22;54569;52.018;5.584;2023-04-26T06:23:18;6.40;69.60
67769;DHT22;54569;52.018;5.584;2023-04-26T06:25:43;6.60;69.10
67769;DHT22;54569;52.018;5.584;2023-04-26T06:28:13;6.70;68.60
67769;DHT22;54569;52.018;5.584;2023-04-26T06:30:39;6.80;68.50
67769;DHT22;54569;52.018;5.584;2023-04-26T06:33:06;6.90;68.30
67769;DHT22;54569;52.018;5.584;2023-04-26T06:35:37;7.00;68.10
67769;DHT22;54569;52.018;5.584;2023-04-26T06:38:03;7.10;67.80
67769;DHT22;54569;52.018;5.584;2023-04-26T06:40:29;7.20;67.60
67769;DHT22;54569;52.018;5.584;2023-04-26T06:42:55;7.30;67.60
67769;DHT22;54569;52.018;5.584;2023-04-26T06:45:36;7.40;67.40
67769;DHT22;54569;52.018;5.584;2023-04-26T06:48:02;7.60;67.20
67769;DHT22;54569;52.018;5.584;2023-04-26T06:50:29;7.90;66.90
67769;DHT22;54569;52.018;5.584;2023-04-26T06:52:55;8.10;66.40
67769;DHT22;54569;52.018;5.584;2023-04-26T06:55:21;8.20;66.00
67769;DHT22;54569;52.018;5.584;2023-04-26T06:57:46;8.40;65.80
67769;DHT22;54569;52.018;5.584;2023-04-26T07:00:13;8.60;65.50
67769;DHT22;54569;52.018;5.584;2023-04-26T07:02:39;8.60;65.20
67769;DHT22;54569;52.018;5.584;2023-04-26T07:05:05;8.70;65.00
67769;DHT22;54569;52.018;5.584;2023-04-26T07:07:30;8.80;64.90
67769;DHT22;54569;52.018;5.584;2023-04-26T07:09:56;9.00;64.70
67769;DHT22;54569;52.018;5.584;2023-04-26T07:12:22;9.10;64.50
67769;DHT22;54569;52.018;5.584;2023-04-26T07:14:47;9.20;64.40
67769;DHT22;54569;52.018;5.584;2023-04-26T07:17:13;9.40;64.00
67769;DHT22;54569;52.018;5.584;2023-04-26T07:19:38;9.50;63.80
67769;DHT22;54569;52.018;5.584;2023-04-26T07:22:04;9.60;63.60
67769;DHT22;54569;52.018;5.584;2023-04-26T07:24:30;9.60;63.50
67769;DHT22;54569;52.018;5.584;2023-04-26T07:26:56;9.60;63.40
67769;DHT22;54569;52.018;5.584;2023-04-26T07:29:22;9.70;63.30
67769;DHT22;54569;52.018;5.584;2023-04-26T07:31:48;9.70;63.20
67769;DHT22;54569;52.018;5.584;2023-04-26T07:34:14;9.90;63.10
67769;DHT22;54569;52.018;5.584;2023-04-26T07:36:39;10.00;62.80
67769;DHT22;54569;52.018;5.584;2023-04-26T07:39:05;10.10;62.40
67769;DHT22;54569;52.018;5.584;2023-04-26T07:41:33;10.10;63.10
67769;DHT22;54569;52.018;5.584;2023-04-26T07:43:58;10.00;62.40
67769;DHT22;54569;52.018;5.584;2023-04-26T07:46:24;10.00;62.50
67769;DHT22;54569;52.018;5.584;2023-04-26T07:48:50;10.00;62.40
67769;DHT22;54569;52.018;5.584;2023-04-26T07:51:15;10.10;62.30
67769;DHT22;54569;52.018;5.584;2023-04-26T07:53:41;10.10;62.40
67769;DHT22;54569;52.018;5.584;2023-04-26T07:56:07;10.30;62.20
67769;DHT22;54569;52.018;5.584;2023-04-26T07:58:34;10.40;62.10
67769;DHT22;54569;52.018;5.584;2023-04-26T08:01:00;10.50;61.70
67769;DHT22;54569;52.018;5.584;2023-04-26T08:03:26;10.60;61.60
67769;DHT22;54569;52.018;5.584;2023-04-26T08:05:53;10.50;61.30
67769;DHT22;54569;52.018;5.584;2023-04-26T08:08:19;10.50;61.60
67769;DHT22;54569;52.018;5.584;2023-04-26T08:10:44;10.30;61.90
67769;DHT22;54569;52.018;5.584;2023-04-26T08:13:10;10.30;62.20
67769;DHT22;54569;52.018;5.584;2023-04-26T08:15:36;10.40;62.00
67769;DHT22;54569;52.018;5.584;2023-04-26T08:18:02;10.60;61.90
67769;DHT22;54569;52.018;5.584;2023-04-26T08:20:27;10.70;61.40
67769;DHT22;54569;52.018;5.584;2023-04-26T08:22:56;10.90;61.50
67769;DHT22;54569;52.018;5.584;2023-04-26T08:25:23;11.00;61.20
67769;DHT22;54569;52.018;5.584;2023-04-26T08:27:49;11.30;60.80
67769;DHT22;54569;52.018;5.584;2023-04-26T08:30:15;11.50;60.40
67769;DHT22;54569;52.018;5.584;2023-04-26T08:32:41;11.50;60.20
67769;DHT22;54569;52.018;5.584;2023-04-26T08:35:07;11.20;60.70
67769;DHT22;54569;52.018;5.584;2023-04-26T08:37:34;10.90;61.00
67769;DHT22;54569;52.018;5.584;2023-04-26T08:40:00;10.80;61.60
67769;DHT22;54569;52.018;5.584;2023-04-26T08:42:27;10.60;61.90
67769;DHT22;54569;52.018;5.584;2023-04-26T08:44:53;10.40;62.20
67769;DHT22;54569;52.018;5.584;2023-04-26T08:49:57;10.00;62.60
67769;DHT22;54569;52.018;5.584;2023-04-26T08:52:29;9.80;63.10
67769;DHT22;54569;52.018;5.584;2023-04-26T08:54:56;9.80;63.30
67769;DHT22;54569;52.018;5.584;2023-04-26T08:57:23;9.80;63.10
67769;DHT22;54569;52.018;5.584;2023-04-26T08:59:49;9.80;63.00
67769;DHT22;54569;52.018;5.584;2023-04-26T09:02:20;9.80;62.80
67769;DHT22;54569;52.018;5.584;2023-04-26T09:04:47;9.90;62.50
67769;DHT22;54569;52.018;5.584;2023-04-26T09:07:21;10.00;62.40
67769;DHT22;54569;52.018;5.584;2023-04-26T09:09:49;10.20;61.80
67769;DHT22;54569;52.018;5.584;2023-04-26T09:12:19;10.40;61.70
67769;DHT22;54569;52.018;5.584;2023-04-26T09:14:48;10.50;61.00
67769;DHT22;54569;52.018;5.584;2023-04-26T09:19:55;10.80;60.00
67769;DHT22;54569;52.018;5.584;2023-04-26T09:22:32;10.70;60.40
67769;DHT22;54569;52.018;5.584;2023-04-26T09:24:58;10.70;60.20
67769;DHT22;54569;52.018;5.584;2023-04-26T09:27:38;10.60;60.50
67769;DHT22;54569;52.018;5.584;2023-04-26T09:30:15;10.40;60.20
67769;DHT22;54569;52.018;5.584;2023-04-26T09:44:23;9.80;60.90
67769;DHT22;54569;52.018;5.584;2023-04-26T09:47:06;9.70;61.90
67769;DHT22;54569;52.018;5.584;2023-04-26T09:49:48;9.60;61.80
67769;DHT22;54569;52.018;5.584;2023-04-26T09:52:16;9.50;61.70
67769;DHT22;54569;52.018;5.584;2023-04-26T09:54:49;9.50;62.00
67769;DHT22;54569;52.018;5.584;2023-04-26T09:57:19;9.50;62.00
67769;DHT22;54569;52.018;5.584;2023-04-26T09:59:51;9.50;62.00
67769;DHT22;54569;52.018;5.584;2023-04-26T10:02:19;9.50;61.90
67769;DHT22;54569;52.018;5.584;2023-04-26T10:04:55;9.50;61.90
67769;DHT22;54569;52.018;5.584;2023-04-26T10:07:23;9.50;61.80
67769;DHT22;54569;52.018;5.584;2023-04-26T10:09:49;9.50;62.10
67769;DHT22;54569;52.018;5.584;2023-04-26T10:12:17;9.50;62.10
67769;DHT22;54569;52.018;5.584;2023-04-26T10:14:44;9.60;62.10
67769;DHT22;54569;52.018;5.584;2023-04-26T10:17:11;9.60;62.10
67769;DHT22;54569;52.018;5.584;2023-04-26T10:19:39;9.60;62.20
67769;DHT22;54569;52.018;5.584;2023-04-26T10:22:21;9.60;62.10
67769;DHT22;54569;52.018;5.584;2023-04-26T10:24:48;9.60;62.10
67769;DHT22;54569;52.018;5.584;2023-04-26T10:27:14;9.60;62.20
67769;DHT22;54569;52.018;5.584;2023-04-26T10:32:21;9.90;61.80
67769;DHT22;54569;52.018;5.584;2023-04-26T10:35:12;10.00;61.60
67769;DHT22;54569;52.018;5.584;2023-04-26T10:40:36;10.20;60.90
67769;DHT22;54569;52.018;5.584;2023-04-26T10:45:39;10.40;60.80
67769;DHT22;54569;52.018;5.584;2023-04-26T10:48:19;10.50;60.50
67769;DHT22;54569;52.018;5.584;2023-04-26T10:53:31;10.80;60.00
67769;DHT22;54569;52.018;5.584;2023-04-26T10:55:57;10.90;60.20
67769;DHT22;54569;52.018;5.584;2023-04-26T10:58:33;11.00;60.10
67769;DHT22;54569;52.018;5.584;2023-04-26T11:01:07;11.20;59.80
67769;DHT22;54569;52.018;5.584;2023-04-26T11:03:34;11.30;59.40
67769;DHT22;54569;52.018;5.584;2023-04-26T11:06:04;11.30;59.20
67769;DHT22;54569;52.018;5.584;2023-04-26T11:08:30;11.30;59.10
67769;DHT22;54569;52.018;5.584;2023-04-26T11:11:06;11.30;59.40
67769;DHT22;54569;52.018;5.584;2023-04-26T11:13:42;11.30;59.50
67769;DHT22;54569;52.018;5.584;2023-04-26T11:16:09;11.20;59.30
67769;DHT22;54569;52.018;5.584;2023-04-26T11:18:37;11.20;59.30
67769;DHT22;54569;52.018;5.584;2023-04-26T11:21:07;11.20;59.20
67769;DHT22;54569;52.018;5.584;2023-04-26T11:23:33;11.40;59.20
67769;DHT22;54569;52.018;5.584;2023-04-26T11:26:02;11.40;58.90
67769;DHT22;54569;52.018;5.584;2023-04-26T11:28:29;11.40;58.50
67769;DHT22;54569;52.018;5.584;2023-04-26T11:30:56;11.40;58.70
67769;DHT22;54569;52.018;5.584;2023-04-26T11:33:22;11.50;58.60
67769;DHT22;54569;52.018;5.584;2023-04-26T11:35:49;11.60;58.50
67769;DHT22;54569;52.018;5.584;2023-04-26T11:38:15;11.60;58.30
67769;DHT22;54569;52.018;5.584;2023-04-26T11:40:41;11.70;58.30
67769;DHT22;54569;52.018;5.584;2023-04-26T11:43:08;11.80;58.10
67769;DHT22;54569;52.018;5.584;2023-04-26T11:45:35;11.80;57.90
67769;DHT22;54569;52.018;5.584;2023-04-26T11:48:03;11.80;57.70
67769;DHT22;54569;52.018;5.584;2023-04-26T11:50:31;11.80;57.70
67769;DHT22;54569;52.018;5.584;2023-04-26T11:52:59;11.80;57.30
67769;DHT22;54569;52.018;5.584;2023-04-26T11:55:29;11.70;57.70
67769;DHT22;54569;52.018;5.584;2023-04-26T11:58:01;11.80;58.00
67769;DHT22;54569;52.018;5.584;2023-04-26T12:00:33;11.80;57.90
67769;DHT22;54569;52.018;5.584;2023-04-26T12:03:06;11.90;57.40
67769;DHT22;54569;52.018;5.584;2023-04-26T12:05:35;11.90;57.00
67769;DHT22;54569;52.018;5.584;2023-04-26T12:08:01;11.90;57.30
67769;DHT22;54569;52.018;5.584;2023-04-26T12:10:32;12.00;57.40
67769;DHT22;54569;52.018;5.584;2023-04-26T12:12:59;12.10;57.20
67769;DHT22;54569;52.018;5.584;2023-04-26T12:15:29;12.10;57.20
67769;DHT22;54569;52.018;5.584;2023-04-26T12:18:05;12.20;57.00
67769;DHT22;54569;52.018;5.584;2023-04-26T12:20:34;12.20;57.00
67769;DHT22;54569;52.018;5.584;2023-04-26T12:23:04;12.10;57.60
67769;DHT22;54569;52.018;5.584;2023-04-26T12:25:33;12.00;57.60
67769;DHT22;54569;52.018;5.584;2023-04-26T12:27:59;11.90;57.90
67769;DHT22;54569;52.018;5.584;2023-04-26T12:30:26;12.00;57.90
67769;DHT22;54569;52.018;5.584;2023-04-26T12:33:00;12.00;57.60
67769;DHT22;54569;52.018;5.584;2023-04-26T12:35:26;11.90;57.70
67769;DHT22;54569;52.018;5.584;2023-04-26T12:37:52;11.90;57.70
67769;DHT22;54569;52.018;5.584;2023-04-26T12:40:20;11.90;57.60
67769;DHT22;54569;52.018;5.584;2023-04-26T12:42:46;12.00;57.80
67769;DHT22;54569;52.018;5.584;2023-04-26T12:45:12;12.00;57.80
67769;DHT22;54569;52.018;5.584;2023-04-26T12:47:38;12.20;57.60
67769;DHT22;54569;52.018;5.584;2023-04-26T12:50:04;12.20;57.40
67769;DHT22;54569;52.018;5.584;2023-04-26T12:52:30;12.30;57.20
67769;DHT22;54569;52.018;5.584;2023-04-26T12:54:57;12.30;57.30
67769;DHT22;54569;52.018;5.584;2023-04-26T12:57:22;12.20;57.20
67769;DHT22;54569;52.018;5.584;2023-04-26T12:59:48;12.20;57.20
67769;DHT22;54569;52.018;5.584;2023-04-26T13:02:15;12.10;57.30
67769;DHT22;54569;52.018;5.584;2023-04-26T13:04:44;12.10;57.60
67769;DHT22;54569;52.018;5.584;2023-04-26T13:07:09;12.30;57.30
67769;DHT22;54569;52.018;5.584;2023-04-26T13:09:35;12.50;57.10
67769;DHT22;54569;52.018;5.584;2023-04-26T13:12:01;12.60;56.60
67769;DHT22;54569;52.018;5.584;2023-04-26T13:14:26;12.80;55.80
67769;DHT22;54569;52.018;5.584;2023-04-26T13:16:52;13.00;55.30
67769;DHT22;54569;52.018;5.584;2023-04-26T13:19:18;13.30;54.70
67769;DHT22;54569;52.018;5.584;2023-04-26T13:21:44;13.50;54.30
67769;DHT22;54569;52.018;5.584;2023-04-26T13:24:10;13.50;54.10
67769;DHT22;54569;52.018;5.584;2023-04-26T13:26:35;13.50;54.10
67769;DHT22;54569;52.018;5.584;2023-04-26T13:29:01;13.50;54.20
67769;DHT22;54569;52.018;5.584;2023-04-26T13:31:29;13.60;54.40
67769;DHT22;54569;52.018;5.584;2023-04-26T13:33:54;13.70;54.30
67769;DHT22;54569;52.018;5.584;2023-04-26T13:36:20;13.80;55.20
67769;DHT22;54569;52.018;5.584;2023-04-26T13:38:46;14.00;54.20
67769;DHT22;54569;52.018;5.584;2023-04-26T13:41:12;14.00;54.20
67769;DHT22;54569;52.018;5.584;2023-04-26T13:43:37;14.00;54.40
67769;DHT22;54569;52.018;5.584;2023-04-26T13:46:03;13.80;55.10
67769;DHT22;54569;52.018;5.584;2023-04-26T13:48:29;13.70;54.50
67769;DHT22;54569;52.018;5.584;2023-04-26T13:50:55;13.70;54.80
67769;DHT22;54569;52.018;5.584;2023-04-26T13:53:21;13.60;54.70
67769;DHT22;54569;52.018;5.584;2023-04-26T13:55:47;13.50;54.80
67769;DHT22;54569;52.018;5.584;2023-04-26T13:58:13;13.60;55.00
67769;DHT22;54569;52.018;5.584;2023-04-26T14:00:38;13.60;55.10
67769;DHT22;54569;52.018;5.584;2023-04-26T14:03:04;13.50;55.10
67769;DHT22;54569;52.018;5.584;2023-04-26T14:05:30;13.40;55.10
67769;DHT22;54569;52.018;5.584;2023-04-26T14:07:56;13.30;55.20
67769;DHT22;54569;52.018;5.584;2023-04-26T14:10:22;13.20;55.20
67769;DHT22;54569;52.018;5.584;2023-04-26T14:12:47;13.20;55.50
67769;DHT22;54569;52.018;5.584;2023-04-26T14:15:13;13.10;55.30
67769;DHT22;54569;52.018;5.584;2023-04-26T14:17:39;13.00;55.50
67769;DHT22;54569;52.018;5.584;2023-04-26T14:20:06;12.80;55.50
67769;DHT22;54569;52.018;5.584;2023-04-26T14:22:33;12.70;55.70
67769;DHT22;54569;52.018;5.584;2023-04-26T14:24:58;12.70;55.90
67769;DHT22;54569;52.018;5.584;2023-04-26T14:27:24;12.70;55.90
67769;DHT22;54569;52.018;5.584;2023-04-26T14:29:50;12.70;55.70
67769;DHT22;54569;52.018;5.584;2023-04-26T14:32:16;12.60;56.00
67769;DHT22;54569;52.018;5.584;2023-04-26T14:34:42;12.40;56.00
67769;DHT22;54569;52.018;5.584;2023-04-26T14:37:07;12.40;56.00
67769;DHT22;54569;52.018;5.584;2023-04-26T14:39:33;12.40;56.10
67769;DHT22;54569;52.018;5.584;2023-04-26T14:41:59;12.30;56.10
67769;DHT22;54569;52.018;5.584;2023-04-26T14:44:26;12.20;56.00
67769;DHT22;54569;52.018;5.584;2023-04-26T14:46:52;12.20;56.20
67769;DHT22;54569;52.018;5.584;2023-04-26T14:49:18;12.10;56.10
67769;DHT22;54569;52.018;5.584;2023-04-26T14:51:44;12.00;56.30
67769;DHT22;54569;52.018;5.584;2023-04-26T14:54:09;11.90;56.60
67769;DHT22;54569;52.018;5.584;2023-04-26T14:56:35;11.70;56.70
67769;DHT22;54569;52.018;5.584;2023-04-26T14:59:02;11.70;56.90
67769;DHT22;54569;52.018;5.584;2023-04-26T15:01:29;11.60;57.00
67769;DHT22;54569;52.018;5.584;2023-04-26T15:03:55;11.70;56.90
67769;DHT22;54569;52.018;5.584;2023-04-26T15:06:21;11.70;56.80
67769;DHT22;54569;52.018;5.584;2023-04-26T15:08:48;11.60;56.80
67769;DHT22;54569;52.018;5.584;2023-04-26T15:11:14;11.60;56.80
67769;DHT22;54569;52.018;5.584;2023-04-26T15:13:39;11.60;56.80
67769;DHT22;54569;52.018;5.584;2023-04-26T15:16:05;11.50;56.80
67769;DHT22;54569;52.018;5.584;2023-04-26T15:18:31;11.50;56.90
67769;DHT22;54569;52.018;5.584;2023-04-26T15:20:57;11.50;56.80
67769;DHT22;54569;52.018;5.584;2023-04-26T15:23:24;11.50;56.50
67769;DHT22;54569;52.018;5.584;2023-04-26T15:25:49;11.60;56.60
67769;DHT22;54569;52.018;5.584;2023-04-26T15:28:15;11.60;56.50
67769;DHT22;54569;52.018;5.584;2023-04-26T15:30:41;11.60;56.50
67769;DHT22;54569;52.018;5.584;2023-04-26T15:33:07;11.60;56.30
67769;DHT22;54569;52.018;5.584;2023-04-26T15:35:34;11.70;56.20
67769;DHT22;54569;52.018;5.584;2023-04-26T15:37:59;11.80;55.90
67769;DHT22;54569;52.018;5.584;2023-04-26T15:40:25;11.80;55.80
67769;DHT22;54569;52.018;5.584;2023-04-26T15:42:52;11.90;56.60
67769;DHT22;54569;52.018;5.584;2023-04-26T15:45:18;12.00;55.80
67769;DHT22;54569;52.018;5.584;2023-04-26T15:47:45;12.10;55.60
67769;DHT22;54569;52.018;5.584;2023-04-26T15:50:11;12.00;55.20
67769;DHT22;54569;52.018;5.584;2023-04-26T15:52:37;11.90;55.40
67769;DHT22;54569;52.018;5.584;2023-04-26T15:55:04;11.90;55.50
67769;DHT22;54569;52.018;5.584;2023-04-26T15:57:33;11.90;55.70
67769;DHT22;54569;52.018;5.584;2023-04-26T15:59:59;11.90;55.90
67769;DHT22;54569;52.018;5.584;2023-04-26T16:02:25;11.90;55.60
67769;DHT22;54569;52.018;5.584;2023-04-26T16:04:51;11.90;55.70
67769;DHT22;54569;52.018;5.584;2023-04-26T16:07:17;11.90;55.50